sensor_id;sensor_type;location;lat;lon;timestamp;P1;durP1;ratioP1;P2;durP2;ratioP2
79130;SDS011;72396;45.194;9.142;2023-08-30T09:42:20;1.83;;;0.88;;
79130;SDS011;72396;45.194;9.142;2023-08-30T09:44:47;2.65;;;0.80;;
79130;SDS011;72396;45.194;9.142;2023-08-30T09:47:13;2.45;;;0.98;;
79130;SDS011;72396;45.194;9.142;2023-08-30T09:49:43;2.47;;;0.90;;
79130;SDS011;72396;45.194;9.142;2023-08-30T09:52:10;2.60;;;0.88;;
79130;SDS011;72396;45.194;9.142;2023-08-30T09:54:40;1.63;;;0.80;;
79130;SDS011;72396;45.194;9.142;2023-08-30T09:57:08;2.15;;;0.80;;
79130;SDS011;72396;45.194;9.142;2023-08-30T09:59:34;3.08;;;1.00;;
79130;SDS011;72396;45.194;9.142;2023-08-30T10:02:00;1.92;;;0.70;;
79130;SDS011;72396;45.194;9.142;2023-08-30T10:04:26;2.85;;;0.90;;
79130;SDS011;72396;45.194;9.142;2023-08-30T10:06:53;3.45;;;0.80;;
79130;SDS011;72396;45.194;9.142;2023-08-30T10:09:20;1.67;;;0.70;;
79130;SDS011;72396;45.194;9.142;2023-08-30T10:11:46;2.53;;;0.70;;
79130;SDS011;72396;45.194;9.142;2023-08-30T10:14:12;2.25;;;0.90;;
79130;SDS011;72396;45.194;9.142;2023-08-30T10:16:42;4.40;;;0.90;;
79130;SDS011;72396;45.194;9.142;2023-08-30T10:21:40;2.05;;;0.90;;
79130;SDS011;72396;45.194;9.142;2023-08-30T10:24:08;1.45;;;0.80;;
79130;SDS011;72396;45.194;9.142;2023-08-30T10:26:35;2.17;;;0.95;;
79130;SDS011;72396;45.194;9.142;2023-08-30T10:29:03;2.83;;;0.80;;
79130;SDS011;72396;45.194;9.142;2023-08-30T10:31:30;2.10;;;0.75;;
79130;SDS011;72396;45.194;9.142;2023-08-30T10:33:55;2.45;;;0.80;;
79130;SDS011;72396;45.194;9.142;2023-08-30T10:36:25;1.60;;;0.65;;
79130;SDS011;72396;45.194;9.142;2023-08-30T10:38:51;1.00;;;0.70;;
79130;SDS011;72396;45.194;9.142;2023-08-30T10:41:21;2.20;;;0.95;;
79130;SDS011;72396;45.194;9.142;2023-08-30T10:43:52;3.22;;;0.90;;
79130;SDS011;72396;45.194;9.142;2023-08-30T10:46:30;1.60;;;0.80;;
79130;SDS011;72396;45.194;9.142;2023-08-30T10:49:07;2.90;;;0.80;;
79130;SDS011;72396;45.194;9.142;2023-08-30T10:51:35;1.20;;;0.70;;
79130;SDS011;72396;45.194;9.142;2023-08-30T10:54:09;2.35;;;0.60;;
79130;SDS011;72396;45.194;9.142;2023-08-30T10:59:18;1.77;;;0.75;;
79130;SDS011;72396;45.194;9.142;2023-08-30T11:01:45;2.70;;;0.52;;
79130;SDS011;72396;45.194;9.142;2023-08-30T11:04:12;1.35;;;0.68;;
79130;SDS011;72396;45.194;9.142;2023-08-30T11:06:39;2.13;;;0.80;;
79130;SDS011;72396;45.194;9.142;2023-08-30T11:09:06;1.23;;;0.60;;
79130;SDS011;72396;45.194;9.142;2023-08-30T11:11:33;3.88;;;0.82;;
79130;SDS011;72396;45.194;9.142;2023-08-30T11:14:05;2.33;;;0.80;;
79130;SDS011;72396;45.194;9.142;2023-08-30T11:16:37;1.45;;;0.75;;
79130;SDS011;72396;45.194;9.142;2023-08-30T11:19:03;1.98;;;0.75;;
79130;SDS011;72396;45.194;9.142;2023-08-30T11:21:30;3.78;;;1.38;;
79130;SDS011;72396;45.194;9.142;2023-08-30T11:23:56;2.70;;;0.80;;
79130;SDS011;72396;45.194;9.142;2023-08-30T11:26:21;2.97;;;0.80;;
79130;SDS011;72396;45.194;9.142;2023-08-30T11:28:47;1.80;;;0.73;;
79130;SDS011;72396;45.194;9.142;2023-08-30T11:31:22;1.98;;;0.75;;
79130;SDS011;72396;45.194;9.142;2023-08-30T11:33:52;4.40;;;1.17;;
79130;SDS011;72396;45.194;9.142;2023-08-30T11:36:20;3.13;;;1.05;;
79130;SDS011;72396;45.194;9.142;2023-08-30T11:38:47;5.95;;;1.42;;
79130;SDS011;72396;45.194;9.142;2023-08-30T11:41:13;7.35;;;1.98;;
79130;SDS011;72396;45.194;9.142;2023-08-30T11:43:38;9.18;;;2.03;;
79130;SDS011;72396;45.194;9.142;2023-08-30T11:46:05;3.28;;;1.02;;
79130;SDS011;72396;45.194;9.142;2023-08-30T11:48:30;1.88;;;0.70;;
79130;SDS011;72396;45.194;9.142;2023-08-30T11:50:57;3.00;;;0.90;;
79130;SDS011;72396;45.194;9.142;2023-08-30T11:53:23;3.10;;;1.00;;
79130;SDS011;72396;45.194;9.142;2023-08-30T11:55:49;2.53;;;0.90;;
79130;SDS011;72396;45.194;9.142;2023-08-30T11:58:15;3.00;;;0.95;;
79130;SDS011;72396;45.194;9.142;2023-08-30T12:00:40;2.10;;;0.77;;
79130;SDS011;72396;45.194;9.142;2023-08-30T12:03:05;2.47;;;0.80;;
79130;SDS011;72396;45.194;9.142;2023-08-30T12:05:31;2.80;;;0.90;;
79130;SDS011;72396;45.194;9.142;2023-08-30T12:08:00;4.30;;;1.15;;
79130;SDS011;72396;45.194;9.142;2023-08-30T12:10:26;3.00;;;1.15;;
79130;SDS011;72396;45.194;9.142;2023-08-30T12:12:53;2.25;;;0.95;;
79130;SDS011;72396;45.194;9.142;2023-08-30T12:15:19;3.13;;;1.15;;
79130;SDS011;72396;45.194;9.142;2023-08-30T12:20:15;3.57;;;1.10;;
79130;SDS011;72396;45.194;9.142;2023-08-30T12:22:42;2.40;;;1.13;;
79130;SDS011;72396;45.194;9.142;2023-08-30T12:27:42;2.88;;;1.00;;
79130;SDS011;72396;45.194;9.142;2023-08-30T12:30:08;3.22;;;1.20;;
79130;SDS011;72396;45.194;9.142;2023-08-30T12:32:33;10.32;;;1.70;;
79130;SDS011;72396;45.194;9.142;2023-08-30T12:34:59;3.80;;;1.42;;
79130;SDS011;72396;45.194;9.142;2023-08-30T12:37:24;5.25;;;1.50;;
79130;SDS011;72396;45.194;9.142;2023-08-30T12:39:49;5.07;;;1.40;;
79130;SDS011;72396;45.194;9.142;2023-08-30T12:42:15;3.85;;;1.30;;
79130;SDS011;72396;45.194;9.142;2023-08-30T12:44:40;40.28;;;3.90;;
79130;SDS011;72396;45.194;9.142;2023-08-30T12:47:05;13.50;;;2.17;;
79130;SDS011;72396;45.194;9.142;2023-08-30T12:49:31;10.43;;;1.48;;
79130;SDS011;72396;45.194;9.142;2023-08-30T12:51:56;4.07;;;1.05;;
79130;SDS011;72396;45.194;9.142;2023-08-30T12:54:22;5.57;;;1.30;;
79130;SDS011;72396;45.194;9.142;2023-08-30T12:56:47;2.78;;;1.00;;
79130;SDS011;72396;45.194;9.142;2023-08-30T12:59:13;2.97;;;1.02;;
79130;SDS011;72396;45.194;9.142;2023-08-30T13:01:38;6.88;;;1.13;;
79130;SDS011;72396;45.194;9.142;2023-08-30T13:04:03;2.90;;;0.90;;
79130;SDS011;72396;45.194;9.142;2023-08-30T13:06:29;4.53;;;1.13;;
79130;SDS011;72396;45.194;9.142;2023-08-30T13:08:54;2.03;;;0.77;;
79130;SDS011;72396;45.194;9.142;2023-08-30T13:11:19;2.65;;;0.90;;
79130;SDS011;72396;45.194;9.142;2023-08-30T13:13:45;3.15;;;0.90;;
79130;SDS011;72396;45.194;9.142;2023-08-30T13:16:10;3.17;;;0.90;;
79130;SDS011;72396;45.194;9.142;2023-08-30T13:18:35;3.72;;;1.45;;
79130;SDS011;72396;45.194;9.142;2023-08-30T13:21:01;1.65;;;0.90;;
79130;SDS011;72396;45.194;9.142;2023-08-30T13:23:26;3.50;;;0.80;;
79130;SDS011;72396;45.194;9.142;2023-08-30T13:25:51;2.15;;;0.80;;
79130;SDS011;72396;45.194;9.142;2023-08-30T13:28:17;2.97;;;0.90;;
79130;SDS011;72396;45.194;9.142;2023-08-30T13:30:46;2.53;;;1.00;;
79130;SDS011;72396;45.194;9.142;2023-08-30T13:33:11;1.38;;;0.75;;
79130;SDS011;72396;45.194;9.142;2023-08-30T13:35:40;2.22;;;0.82;;
79130;SDS011;72396;45.194;9.142;2023-08-30T13:38:05;1.92;;;0.70;;
79130;SDS011;72396;45.194;9.142;2023-08-30T13:40:30;1.83;;;0.70;;
79130;SDS011;72396;45.194;9.142;2023-08-30T13:42:56;1.67;;;0.80;;
79130;SDS011;72396;45.194;9.142;2023-08-30T13:45:21;1.35;;;0.65;;
79130;SDS011;72396;45.194;9.142;2023-08-30T13:47:46;1.55;;;0.80;;
79130;SDS011;72396;45.194;9.142;2023-08-30T13:50:12;1.52;;;0.70;;
79130;SDS011;72396;45.194;9.142;2023-08-30T13:52:37;1.13;;;0.70;;
79130;SDS011;72396;45.194;9.142;2023-08-30T13:55:03;1.77;;;0.70;;
79130;SDS011;72396;45.194;9.142;2023-08-30T13:57:29;0.75;;;0.60;;
79130;SDS011;72396;45.194;9.142;2023-08-30T13:59:54;1.13;;;0.70;;
79130;SDS011;72396;45.194;9.142;2023-08-30T14:02:19;1.00;;;0.60;;
79130;SDS011;72396;45.194;9.142;2023-08-30T14:04:45;1.88;;;0.70;;
79130;SDS011;72396;45.194;9.142;2023-08-30T14:07:10;1.45;;;0.50;;
79130;SDS011;72396;45.194;9.142;2023-08-30T14:09:37;0.90;;;0.40;;
79130;SDS011;72396;45.194;9.142;2023-08-30T14:12:02;2.05;;;0.60;;
79130;SDS011;72396;45.194;9.142;2023-08-30T14:14:29;1.05;;;0.60;;
79130;SDS011;72396;45.194;9.142;2023-08-30T14:16:54;1.38;;;0.60;;
79130;SDS011;72396;45.194;9.142;2023-08-30T14:19:20;1.52;;;0.60;;
79130;SDS011;72396;45.194;9.142;2023-08-30T14:21:45;1.23;;;0.70;;
79130;SDS011;72396;45.194;9.142;2023-08-30T14:24:10;1.08;;;0.60;;
79130;SDS011;72396;45.194;9.142;2023-08-30T14:26:36;1.40;;;0.60;;
79130;SDS011;72396;45.194;9.142;2023-08-30T14:29:02;0.73;;;0.60;;
79130;SDS011;72396;45.194;9.142;2023-08-30T14:31:27;1.33;;;0.70;;
79130;SDS011;72396;45.194;9.142;2023-08-30T14:33:55;0.85;;;0.60;;
79130;SDS011;72396;45.194;9.142;2023-08-30T14:36:23;1.08;;;0.50;;
79130;SDS011;72396;45.194;9.142;2023-08-30T14:38:48;1.20;;;0.65;;
79130;SDS011;72396;45.194;9.142;2023-08-30T14:41:14;1.25;;;0.70;;
79130;SDS011;72396;45.194;9.142;2023-08-30T14:43:41;1.25;;;0.65;;
79130;SDS011;72396;45.194;9.142;2023-08-30T14:46:06;1.40;;;0.60;;
79130;SDS011;72396;45.194;9.142;2023-08-30T14:48:32;1.80;;;0.70;;
79130;SDS011;72396;45.194;9.142;2023-08-30T14:51:01;1.48;;;0.70;;
79130;SDS011;72396;45.194;9.142;2023-08-30T14:53:27;1.73;;;0.47;;
79130;SDS011;72396;45.194;9.142;2023-08-30T14:55:53;2.78;;;0.60;;
79130;SDS011;72396;45.194;9.142;2023-08-30T14:58:20;1.08;;;0.60;;
79130;SDS011;72396;45.194;9.142;2023-08-30T15:00:48;1.58;;;0.65;;
79130;SDS011;72396;45.194;9.142;2023-08-30T15:03:14;1.33;;;0.68;;
79130;SDS011;72396;45.194;9.142;2023-08-30T15:05:40;1.25;;;0.68;;
79130;SDS011;72396;45.194;9.142;2023-08-30T15:08:05;2.47;;;0.73;;
79130;SDS011;72396;45.194;9.142;2023-08-30T15:10:31;1.20;;;0.60;;
79130;SDS011;72396;45.194;9.142;2023-08-30T15:12:56;1.38;;;0.60;;
79130;SDS011;72396;45.194;9.142;2023-08-30T15:15:21;0.82;;;0.63;;
79130;SDS011;72396;45.194;9.142;2023-08-30T15:17:47;1.50;;;0.60;;
79130;SDS011;72396;45.194;9.142;2023-08-30T15:20:12;1.23;;;0.50;;
79130;SDS011;72396;45.194;9.142;2023-08-30T15:22:37;1.73;;;0.60;;
79130;SDS011;72396;45.194;9.142;2023-08-30T15:25:03;0.95;;;0.70;;
79130;SDS011;72396;45.194;9.142;2023-08-30T15:27:31;2.55;;;0.60;;
79130;SDS011;72396;45.194;9.142;2023-08-30T15:29:58;1.23;;;0.65;;
79130;SDS011;72396;45.194;9.142;2023-08-30T15:32:23;0.93;;;0.60;;
79130;SDS011;72396;45.194;9.142;2023-08-30T15:34:49;1.25;;;0.60;;
79130;SDS011;72396;45.194;9.142;2023-08-30T15:37:15;0.93;;;0.57;;
79130;SDS011;72396;45.194;9.142;2023-08-30T15:39:41;0.85;;;0.63;;
79130;SDS011;72396;45.194;9.142;2023-08-30T15:42:07;0.70;;;0.60;;
79130;SDS011;72396;45.194;9.142;2023-08-30T15:44:32;1.67;;;0.47;;
79130;SDS011;72396;45.194;9.142;2023-08-30T15:46:57;1.05;;;0.55;;
79130;SDS011;72396;45.194;9.142;2023-08-30T15:49:22;0.70;;;0.50;;
79130;SDS011;72396;45.194;9.142;2023-08-30T15:51:48;3.05;;;0.60;;
79130;SDS011;72396;45.194;9.142;2023-08-30T15:54:13;1.67;;;0.52;;
79130;SDS011;72396;45.194;9.142;2023-08-30T15:56:40;1.08;;;0.40;;
79130;SDS011;72396;45.194;9.142;2023-08-30T15:59:06;0.73;;;0.57;;
79130;SDS011;72396;45.194;9.142;2023-08-30T16:01:31;0.90;;;0.60;;
79130;SDS011;72396;45.194;9.142;2023-08-30T16:03:56;1.08;;;0.60;;
79130;SDS011;72396;45.194;9.142;2023-08-30T16:06:22;0.65;;;0.50;;
79130;SDS011;72396;45.194;9.142;2023-08-30T16:08:47;0.75;;;0.52;;
79130;SDS011;72396;45.194;9.142;2023-08-30T16:11:12;4.32;;;0.70;;
79130;SDS011;72396;45.194;9.142;2023-08-30T16:13:38;3.25;;;0.77;;
79130;SDS011;72396;45.194;9.142;2023-08-30T16:16:03;0.40;;;0.40;;
79130;SDS011;72396;45.194;9.142;2023-08-30T16:18:28;1.13;;;0.50;;
79130;SDS011;72396;45.194;9.142;2023-08-30T16:20:54;2.22;;;0.57;;
79130;SDS011;72396;45.194;9.142;2023-08-30T16:23:19;1.38;;;0.60;;
79130;SDS011;72396;45.194;9.142;2023-08-30T16:25:45;2.75;;;0.70;;
79130;SDS011;72396;45.194;9.142;2023-08-30T16:28:10;1.55;;;0.70;;
79130;SDS011;72396;45.194;9.142;2023-08-30T16:30:36;1.52;;;0.88;;
79130;SDS011;72396;45.194;9.142;2023-08-30T16:33:01;1.25;;;0.60;;
79130;SDS011;72396;45.194;9.142;2023-08-30T16:35:27;1.15;;;0.60;;
79130;SDS011;72396;45.194;9.142;2023-08-30T16:37:52;1.45;;;0.60;;
79130;SDS011;72396;45.194;9.142;2023-08-30T16:40:18;1.35;;;0.70;;
79130;SDS011;72396;45.194;9.142;2023-08-30T16:42:43;2.00;;;0.77;;
79130;SDS011;72396;45.194;9.142;2023-08-30T16:45:08;1.52;;;0.73;;
79130;SDS011;72396;45.194;9.142;2023-08-30T16:47:34;1.50;;;0.77;;
79130;SDS011;72396;45.194;9.142;2023-08-30T16:49:59;1.50;;;0.63;;
79130;SDS011;72396;45.194;9.142;2023-08-30T16:52:25;1.42;;;0.60;;
79130;SDS011;72396;45.194;9.142;2023-08-30T16:54:50;1.75;;;0.70;;
79130;SDS011;72396;45.194;9.142;2023-08-30T16:57:16;1.33;;;0.70;;
79130;SDS011;72396;45.194;9.142;2023-08-30T16:59:42;2.33;;;0.68;;
79130;SDS011;72396;45.194;9.142;2023-08-30T17:02:08;1.42;;;0.70;;
79130;SDS011;72396;45.194;9.142;2023-08-30T17:04:33;1.70;;;0.60;;
79130;SDS011;72396;45.194;9.142;2023-08-30T17:06:59;1.02;;;0.60;;
79130;SDS011;72396;45.194;9.142;2023-08-30T17:09:27;1.92;;;0.80;;
79130;SDS011;72396;45.194;9.142;2023-08-30T17:11:58;1.70;;;0.82;;
79130;SDS011;72396;45.194;9.142;2023-08-30T17:14:25;3.30;;;0.90;;
79130;SDS011;72396;45.194;9.142;2023-08-30T17:16:50;1.98;;;0.80;;
79130;SDS011;72396;45.194;9.142;2023-08-30T17:19:16;2.17;;;0.95;;
79130;SDS011;72396;45.194;9.142;2023-08-30T17:21:41;2.08;;;1.02;;
79130;SDS011;72396;45.194;9.142;2023-08-30T17:24:07;1.92;;;0.90;;
79130;SDS011;72396;45.194;9.142;2023-08-30T17:26:32;2.10;;;0.80;;
79130;SDS011;72396;45.194;9.142;2023-08-30T17:28:57;3.50;;;1.00;;
79130;SDS011;72396;45.194;9.142;2023-08-30T17:31:23;2.17;;;0.93;;
79130;SDS011;72396;45.194;9.142;2023-08-30T17:33:50;0.88;;;0.60;;
79130;SDS011;72396;45.194;9.142;2023-08-30T17:36:15;2.88;;;0.63;;
79130;SDS011;72396;45.194;9.142;2023-08-30T17:38:41;2.00;;;0.73;;
79130;SDS011;72396;45.194;9.142;2023-08-30T17:41:07;1.73;;;0.80;;
79130;SDS011;72396;45.194;9.142;2023-08-30T17:43:34;2.33;;;0.80;;
79130;SDS011;72396;45.194;9.142;2023-08-30T17:46:00;2.20;;;0.70;;
79130;SDS011;72396;45.194;9.142;2023-08-30T17:48:26;2.15;;;0.90;;
79130;SDS011;72396;45.194;9.142;2023-08-30T17:50:51;2.67;;;0.70;;
79130;SDS011;72396;45.194;9.142;2023-08-30T17:53:18;4.00;;;0.90;;
79130;SDS011;72396;45.194;9.142;2023-08-30T17:55:43;1.95;;;0.75;;
79130;SDS011;72396;45.194;9.142;2023-08-30T17:58:08;2.75;;;0.70;;
79130;SDS011;72396;45.194;9.142;2023-08-30T18:00:34;3.17;;;0.73;;
79130;SDS011;72396;45.194;9.142;2023-08-30T18:02:59;2.72;;;0.90;;
79130;SDS011;72396;45.194;9.142;2023-08-30T18:05:25;1.30;;;0.80;;
79130;SDS011;72396;45.194;9.142;2023-08-30T18:07:51;2.80;;;0.70;;
79130;SDS011;72396;45.194;9.142;2023-08-30T18:10:20;14.15;;;1.38;;
79130;SDS011;72396;45.194;9.142;2023-08-30T18:12:46;6.00;;;1.40;;
79130;SDS011;72396;45.194;9.142;2023-08-30T18:15:12;1.48;;;0.73;;
79130;SDS011;72396;45.194;9.142;2023-08-30T18:17:37;1.42;;;0.68;;
79130;SDS011;72396;45.194;9.142;2023-08-30T18:20:03;2.90;;;0.90;;
79130;SDS011;72396;45.194;9.142;2023-08-30T18:22:38;1.60;;;0.80;;
79130;SDS011;72396;45.194;9.142;2023-08-30T18:25:04;1.90;;;0.82;;
79130;SDS011;72396;45.194;9.142;2023-08-30T18:27:29;6.80;;;1.20;;
79130;SDS011;72396;45.194;9.142;2023-08-30T18:29:55;1.45;;;0.80;;
79130;SDS011;72396;45.194;9.142;2023-08-30T18:32:21;2.90;;;1.00;;
79130;SDS011;72396;45.194;9.142;2023-08-30T18:34:46;2.53;;;1.20;;
79130;SDS011;72396;45.194;9.142;2023-08-30T18:37:11;2.08;;;0.90;;
79130;SDS011;72396;45.194;9.142;2023-08-30T18:39:37;2.60;;;1.08;;
79130;SDS011;72396;45.194;9.142;2023-08-30T18:42:02;3.30;;;1.15;;
79130;SDS011;72396;45.194;9.142;2023-08-30T18:44:28;2.75;;;1.30;;
79130;SDS011;72396;45.194;9.142;2023-08-30T18:46:54;4.28;;;1.20;;
79130;SDS011;72396;45.194;9.142;2023-08-30T18:49:20;2.95;;;1.35;;
79130;SDS011;72396;45.194;9.142;2023-08-30T18:51:46;2.65;;;1.02;;
79130;SDS011;72396;45.194;9.142;2023-08-30T18:54:11;3.80;;;1.27;;
79130;SDS011;72396;45.194;9.142;2023-08-30T18:56:38;1.85;;;1.00;;
79130;SDS011;72396;45.194;9.142;2023-08-30T18:59:03;2.88;;;1.02;;
79130;SDS011;72396;45.194;9.142;2023-08-30T19:01:29;3.55;;;1.10;;
79130;SDS011;72396;45.194;9.142;2023-08-30T19:03:56;2.50;;;0.90;;
79130;SDS011;72396;45.194;9.142;2023-08-30T19:06:21;2.55;;;0.90;;
79130;SDS011;72396;45.194;9.142;2023-08-30T19:08:47;2.85;;;1.00;;
79130;SDS011;72396;45.194;9.142;2023-08-30T19:11:16;2.45;;;1.00;;
79130;SDS011;72396;45.194;9.142;2023-08-30T19:13:44;2.33;;;1.00;;
79130;SDS011;72396;45.194;9.142;2023-08-30T19:16:12;3.60;;;1.00;;
79130;SDS011;72396;45.194;9.142;2023-08-30T19:18:42;4.20;;;1.30;;
79130;SDS011;72396;45.194;9.142;2023-08-30T19:21:07;4.57;;;1.58;;
79130;SDS011;72396;45.194;9.142;2023-08-30T19:23:33;2.45;;;1.20;;
79130;SDS011;72396;45.194;9.142;2023-08-30T19:25:58;3.08;;;1.17;;
79130;SDS011;72396;45.194;9.142;2023-08-30T19:28:25;2.22;;;0.90;;
79130;SDS011;72396;45.194;9.142;2023-08-30T19:30:50;2.40;;;1.10;;
79130;SDS011;72396;45.194;9.142;2023-08-30T19:33:17;2.80;;;1.10;;
79130;SDS011;72396;45.194;9.142;2023-08-30T19:35:43;1.65;;;0.85;;
79130;SDS011;72396;45.194;9.142;2023-08-30T19:38:09;2.03;;;0.93;;
79130;SDS011;72396;45.194;9.142;2023-08-30T19:40:34;3.22;;;1.05;;
79130;SDS011;72396;45.194;9.142;2023-08-30T19:43:00;3.13;;;1.17;;
79130;SDS011;72396;45.194;9.142;2023-08-30T19:45:25;12.82;;;1.90;;
79130;SDS011;72396;45.194;9.142;2023-08-30T19:47:50;2.28;;;1.20;;
79130;SDS011;72396;45.194;9.142;2023-08-30T19:50:16;2.13;;;1.08;;
79130;SDS011;72396;45.194;9.142;2023-08-30T19:52:46;5.00;;;1.17;;
79130;SDS011;72396;45.194;9.142;2023-08-30T19:55:12;3.25;;;1.05;;
79130;SDS011;72396;45.194;9.142;2023-08-30T19:57:37;2.65;;;1.10;;
79130;SDS011;72396;45.194;9.142;2023-08-30T20:00:04;2.60;;;1.30;;
79130;SDS011;72396;45.194;9.142;2023-08-30T20:02:31;2.90;;;1.10;;
79130;SDS011;72396;45.194;9.142;2023-08-30T20:04:57;2.45;;;1.70;;
79130;SDS011;72396;45.194;9.142;2023-08-30T20:07:22;2.50;;;1.00;;
79130;SDS011;72396;45.194;9.142;2023-08-30T20:09:48;2.97;;;1.15;;
79130;SDS011;72396;45.194;9.142;2023-08-30T20:12:13;2.47;;;1.00;;
79130;SDS011;72396;45.194;9.142;2023-08-30T20:14:38;4.78;;;1.23;;
79130;SDS011;72396;45.194;9.142;2023-08-30T20:17:04;3.75;;;1.40;;
79130;SDS011;72396;45.194;9.142;2023-08-30T20:19:29;3.97;;;1.70;;
79130;SDS011;72396;45.194;9.142;2023-08-30T20:21:54;3.00;;;1.40;;
79130;SDS011;72396;45.194;9.142;2023-08-30T20:24:20;3.28;;;1.40;;
79130;SDS011;72396;45.194;9.142;2023-08-30T20:26:45;2.63;;;1.35;;
79130;SDS011;72396;45.194;9.142;2023-08-30T20:29:14;2.05;;;1.13;;
79130;SDS011;72396;45.194;9.142;2023-08-30T20:31:39;3.22;;;1.30;;
79130;SDS011;72396;45.194;9.142;2023-08-30T20:34:05;2.70;;;1.13;;
79130;SDS011;72396;45.194;9.142;2023-08-30T20:36:31;2.30;;;1.10;;
79130;SDS011;72396;45.194;9.142;2023-08-30T20:38:57;3.45;;;1.20;;
79130;SDS011;72396;45.194;9.142;2023-08-30T20:41:23;3.88;;;1.10;;
79130;SDS011;72396;45.194;9.142;2023-08-30T20:43:50;2.33;;;1.17;;
79130;SDS011;72396;45.194;9.142;2023-08-30T20:46:15;3.53;;;1.17;;
79130;SDS011;72396;45.194;9.142;2023-08-30T20:48:41;2.35;;;1.10;;
79130;SDS011;72396;45.194;9.142;2023-08-30T20:51:06;3.35;;;1.23;;
79130;SDS011;72396;45.194;9.142;2023-08-30T20:53:38;2.15;;;1.10;;
79130;SDS011;72396;45.194;9.142;2023-08-30T20:56:08;2.30;;;1.10;;
79130;SDS011;72396;45.194;9.142;2023-08-30T20:58:40;3.67;;;1.10;;
79130;SDS011;72396;45.194;9.142;2023-08-30T21:01:08;3.25;;;1.10;;
79130;SDS011;72396;45.194;9.142;2023-08-30T21:03:35;3.60;;;1.20;;
79130;SDS011;72396;45.194;9.142;2023-08-30T21:06:00;3.20;;;1.10;;
79130;SDS011;72396;45.194;9.142;2023-08-30T21:08:25;4.07;;;1.17;;
79130;SDS011;72396;45.194;9.142;2023-08-30T21:10:51;2.80;;;1.10;;
79130;SDS011;72396;45.194;9.142;2023-08-30T21:13:17;3.25;;;1.05;;
79130;SDS011;72396;45.194;9.142;2023-08-30T21:15:43;3.03;;;1.17;;
79130;SDS011;72396;45.194;9.142;2023-08-30T21:18:08;2.10;;;1.10;;
79130;SDS011;72396;45.194;9.142;2023-08-30T21:20:34;4.07;;;1.27;;
79130;SDS011;72396;45.194;9.142;2023-08-30T21:23:00;3.67;;;1.00;;
79130;SDS011;72396;45.194;9.142;2023-08-30T21:25:34;2.90;;;1.25;;
79130;SDS011;72396;45.194;9.142;2023-08-30T21:28:01;3.85;;;1.20;;
79130;SDS011;72396;45.194;9.142;2023-08-30T21:30:27;2.58;;;1.17;;
79130;SDS011;72396;45.194;9.142;2023-08-30T21:32:53;3.30;;;1.13;;
79130;SDS011;72396;45.194;9.142;2023-08-30T21:35:18;2.95;;;1.13;;
79130;SDS011;72396;45.194;9.142;2023-08-30T21:37:43;3.08;;;1.20;;
79130;SDS011;72396;45.194;9.142;2023-08-30T21:40:09;3.38;;;1.15;;
79130;SDS011;72396;45.194;9.142;2023-08-30T21:42:34;1.85;;;1.00;;
79130;SDS011;72396;45.194;9.142;2023-08-30T21:45:00;2.60;;;1.10;;
79130;SDS011;72396;45.194;9.142;2023-08-30T21:47:26;2.35;;;1.00;;
79130;SDS011;72396;45.194;9.142;2023-08-30T21:49:51;4.60;;;1.10;;
79130;SDS011;72396;45.194;9.142;2023-08-30T21:52:17;2.50;;;1.10;;
79130;SDS011;72396;45.194;9.142;2023-08-30T21:54:42;3.03;;;1.10;;
79130;SDS011;72396;45.194;9.142;2023-08-30T21:57:08;2.50;;;1.08;;
79130;SDS011;72396;45.194;9.142;2023-08-30T21:59:33;2.88;;;1.10;;
79130;SDS011;72396;45.194;9.142;2023-08-30T22:01:59;2.33;;;1.00;;
79130;SDS011;72396;45.194;9.142;2023-08-30T22:04:24;2.97;;;1.10;;
79130;SDS011;72396;45.194;9.142;2023-08-30T22:06:50;4.32;;;1.42;;
79130;SDS011;72396;45.194;9.142;2023-08-30T22:09:15;2.92;;;1.13;;
79130;SDS011;72396;45.194;9.142;2023-08-30T22:11:41;3.63;;;1.40;;
79130;SDS011;72396;45.194;9.142;2023-08-30T22:14:06;3.10;;;1.10;;
79130;SDS011;72396;45.194;9.142;2023-08-30T22:16:35;1.92;;;0.90;;
79130;SDS011;72396;45.194;9.142;2023-08-30T22:19:02;2.25;;;1.00;;
79130;SDS011;72396;45.194;9.142;2023-08-30T22:21:29;4.22;;;1.10;;
79130;SDS011;72396;45.194;9.142;2023-08-30T22:23:58;3.10;;;1.15;;
79130;SDS011;72396;45.194;9.142;2023-08-30T22:26:26;2.53;;;1.13;;
79130;SDS011;72396;45.194;9.142;2023-08-30T22:28:52;2.55;;;0.93;;
79130;SDS011;72396;45.194;9.142;2023-08-30T22:31:18;2.38;;;1.10;;
79130;SDS011;72396;45.194;9.142;2023-08-30T22:33:43;3.28;;;1.15;;
79130;SDS011;72396;45.194;9.142;2023-08-30T22:36:09;3.00;;;1.00;;
79130;SDS011;72396;45.194;9.142;2023-08-30T22:38:35;3.05;;;1.08;;
79130;SDS011;72396;45.194;9.142;2023-08-30T22:41:01;3.55;;;1.02;;
79130;SDS011;72396;45.194;9.142;2023-08-30T22:43:26;2.75;;;1.10;;
79130;SDS011;72396;45.194;9.142;2023-08-30T22:45:52;2.92;;;1.15;;
79130;SDS011;72396;45.194;9.142;2023-08-30T22:48:17;2.25;;;1.08;;
79130;SDS011;72396;45.194;9.142;2023-08-30T22:50:43;4.15;;;1.30;;
79130;SDS011;72396;45.194;9.142;2023-08-30T22:53:08;2.90;;;1.05;;
79130;SDS011;72396;45.194;9.142;2023-08-30T22:55:36;3.13;;;1.23;;
79130;SDS011;72396;45.194;9.142;2023-08-30T22:58:02;2.50;;;0.95;;
79130;SDS011;72396;45.194;9.142;2023-08-30T23:00:28;4.60;;;1.15;;
79130;SDS011;72396;45.194;9.142;2023-08-30T23:02:54;2.80;;;1.05;;
79130;SDS011;72396;45.194;9.142;2023-08-30T23:05:19;2.55;;;1.10;;
79130;SDS011;72396;45.194;9.142;2023-08-30T23:07:44;3.42;;;1.08;;
79130;SDS011;72396;45.194;9.142;2023-08-30T23:10:11;2.67;;;1.05;;
79130;SDS011;72396;45.194;9.142;2023-08-30T23:12:38;2.20;;;1.02;;
79130;SDS011;72396;45.194;9.142;2023-08-30T23:15:04;3.67;;;1.38;;
79130;SDS011;72396;45.194;9.142;2023-08-30T23:17:43;4.55;;;1.33;;
79130;SDS011;72396;45.194;9.142;2023-08-30T23:20:13;3.35;;;1.20;;
79130;SDS011;72396;45.194;9.142;2023-08-30T23:22:40;4.03;;;1.20;;
79130;SDS011;72396;45.194;9.142;2023-08-30T23:25:06;2.60;;;1.20;;
79130;SDS011;72396;45.194;9.142;2023-08-30T23:27:32;3.42;;;1.42;;
79130;SDS011;72396;45.194;9.142;2023-08-30T23:29:59;3.08;;;1.42;;
79130;SDS011;72396;45.194;9.142;2023-08-30T23:32:24;2.50;;;1.13;;
79130;SDS011;72396;45.194;9.142;2023-08-30T23:34:50;4.38;;;1.25;;
79130;SDS011;72396;45.194;9.142;2023-08-30T23:37:15;2.58;;;1.17;;
79130;SDS011;72396;45.194;9.142;2023-08-30T23:39:40;4.45;;;1.10;;
79130;SDS011;72396;45.194;9.142;2023-08-30T23:42:06;2.70;;;1.30;;
79130;SDS011;72396;45.194;9.142;2023-08-30T23:44:32;2.10;;;1.00;;
79130;SDS011;72396;45.194;9.142;2023-08-30T23:46:58;3.22;;;1.40;;
79130;SDS011;72396;45.194;9.142;2023-08-30T23:49:23;3.45;;;1.23;;
79130;SDS011;72396;45.194;9.142;2023-08-30T23:51:49;2.10;;;1.00;;
79130;SDS011;72396;45.194;9.142;2023-08-30T23:54:14;4.18;;;1.50;;
79130;SDS011;72396;45.194;9.142;2023-08-30T23:56:40;2.45;;;1.00;;
79130;SDS011;72396;45.194;9.142;2023-08-30T23:59:05;2.47;;;1.10;;
